Tiempo atmosférico en la estación meteorológica de Mora, Toledo (717 m.)



Fecha
DESCASC
Temp. máxima en grados centígrados (hora)
DESCASC
Temp. mínima en grados centígrados (hora)
DESCASC
Temp. media en grados centígrados
DESCASC
Racha de viento máxima en m/sg (hora)
DESCASC
Velocidad máxima media en intervalos de 10 minutos(hora)
DESCASC
Precipitaciones diarias en mm
DESCASC
Precipitaciones de 00:00 a 06:00 en mm
DESCASC
Precipitaciones de 06:00 a 12:00 en mm
DESCASC
Precipitaciones de 12:00 a 18:00 en mm
DESCASC
Precipitaciones de 18:00 a 24:00 en mm
DESCASC
14-07-2019 32.5 (19:10) 19.3 (00:00) 25.9 9.72 (15:40) 5.28 (11:10) 0 0 0 0 0
13-07-2019 35 (16:50) 24.8 (00:00) 29.9 12.78 (19:10) 6.67 (19:10) 0 0 0 0 0
12-07-2019 39.7 (18:20) 21.3 (00:00) 30.5 7.22 (22:30) 3.61 (16:40) 0 0 0 0 0
11-07-2019 38.2 (19:30) 19.6 (00:00) 28.9 5.83 (13:10) 3.33 (13:50) 0 0 0 0 0
10-07-2019 32.8 (18:30) 16.2 (00:00) 24.5 6.11 (19:40) 3.33 (15:30) 0 0 0 0 0
09-07-2019 30 (18:40) 15.7 (00:00) 22.8 10.83 (22:10) 5.83 (22:20) 0 0 0 0 0
08-07-2019 30.3 (15:40) 18.3 (00:00) 24.3 11.39 (22:00) 7.22 (21:50) 0 0 0 0 0
07-07-2019 34.7 (17:30) 18.2 (00:00) 26.5 9.44 (21:30) 5.83 (21:30) 0 0 0 0 0
06-07-2019 34.3 (18:30) 18.4 (00:00) 26.3 11.39 (17:40) 5.83 (17:00) 0 0 0 0 0
05-07-2019 33.8 (18:20) 21.1 (00:00) 27.4 10.28 (16:10) 5.56 (15:20) 0 0 0 0 0
04-07-2019 34.3 (17:50) 19.2 (00:00) 26.8 11.11 (00:40) 5 (01:20) 0 0 0 0 0
03-07-2019 35.6 (18:40) 20.6 (00:00) 28.1 10 (15:00) 5 (16:20) 0 0 0 0 0
02-07-2019 34.6 (16:50) 19.3 (06:40) 26.9 7.5 (15:30) 3.61 (17:20) 0 0 0 0 0
01-07-2019 33.8 (15:20) 23.1 (07:40) 28.4 12.22 (16:50) 8.06 (16:50) 0 0 0 0 0
30-06-2019 38.6 (16:30) 23.4 (00:00) 31 10.56 (01:00) 5.56 (01:00) 0 0 0 0 0
29-06-2019 40.5 (17:50) 21.8 (00:00) 31.1 11.67 (02:50) 6.11 (03:00) 0 0 0 0 0
28-06-2019 39.8 (17:10) 21.6 (00:00) 30.7 13.61 (17:40) 7.22 (16:30) 0 0 0 0 0
27-06-2019 38.6 (19:20) 21.1 (00:00) 29.8 15 (23:00) 7.5 (22:10) 0 0 0 0 0
26-06-2019 35.9 (19:10) 21.3 (00:00) 28.6 11.39 (16:40) 5 (22:40) 0 0 0 0 0
25-06-2019 35.5 (18:50) 18.2 (00:00) 26.9 9.44 (19:20) 4.72 (19:50) 0 0 0 0 0
24-06-2019 32.3 (16:50) 19.7 (00:00) 26 9.17 (15:50) 4.44 (22:20) 0 0 0 0 0
23-06-2019 34.7 (17:30) 18.5 (00:00) 26.6 8.89 (13:00) 4.44 (15:10) 0 0 0 0 0
22-06-2019 32.1 (17:10) 17.1 (00:00) 24.6 11.67 (17:10) 4.17 (19:00) 0 0 0 0 0
21-06-2019 29.3 (18:10) 16.4 (00:00) 22.8 7.5 (16:40) 3.89 (19:10) 0 0 0 0 0
20-06-2019 28.9 (16:50) 16.1 (00:00) 22.5 8.89 (16:40) 5 (19:20) 0 0 0 0 0
19-06-2019 -- (--) -- (--) -- -- (--) -- (--) -- -- -- 0 0
18-06-2019 30.2 (16:50) 20 (00:00) 25.1 11.67 (19:20) 6.39 (14:20) 0 0 0 0 0
17-06-2019 31.9 (17:30) 13.7 (00:00) 22.8 9.17 (17:50) 4.17 (18:40) 0 0 0 0 0
16-06-2019 29.6 (16:10) 12.1 (00:00) 20.9 7.22 (18:10) 4.17 (18:10) 0 0 0 0 0

Gráficas

Temp. máximas Temp. mínimas Temp. medias Precipitaciones Rachas de viento máximas Velocidades máximas media en intervalos de 10 minutos

Datos horarios

Fecha y hora oficial Temperatura (ºC) Velocidad del viento (km/h) Dirección del viento Racha (km/h) Dirección de racha Precipitación (mm) Presión (hPa) Tendencia (hPa) Humedad (%)
2019-07-15 23:00:00 29.5 7 Oeste 14 Oeste 0 -- -- 23
2019-07-15 22:00:00 31.4 10 Noroeste 22 Oeste 0 -- -- 23
2019-07-15 21:00:00 33.5 13 Oeste 27 Oeste 0 -- -- 24
2019-07-15 20:00:00 34.7 13 Oeste 28 Noroeste 0 -- -- 22
2019-07-15 19:00:00 35.1 15 Noroeste 33 Noroeste 0 -- -- 21
2019-07-15 18:00:00 34.2 16 Noroeste 29 Oeste 0 -- -- 23
2019-07-15 17:00:00 34.7 16 Noroeste 35 Oeste 0 -- -- 22
2019-07-15 16:00:00 34 16 Noroeste 31 Oeste 0 -- -- 23
2019-07-15 15:00:00 33.4 13 Oeste 29 Oeste 0 -- -- 24
2019-07-15 14:00:00 32.4 11 Oeste 26 Oeste 0 -- -- 26
2019-07-15 13:00:00 31.7 5 Este 13 Sudoeste 0 -- -- 28
2019-07-15 12:00:00 30.2 5 Este 12 Norte 0 -- -- 29
2019-07-15 11:00:00 27.7 5 Norte 12 Nordeste 0 -- -- 34
2019-07-15 10:00:00 25.8 5 Norte 12 Norte 0 -- -- 38
2019-07-15 09:00:00 23.3 3 Norte 7 Norte 0 -- -- 40
2019-07-15 08:00:00 21.9 0 Calma 4 Sudeste 0 -- -- 40
2019-07-15 07:00:00 19.6 0 Calma 9 Sur 0 -- -- 45
2019-07-15 06:00:00 21.1 4 Sudeste 6 Sudeste 0 -- -- 41
2019-07-15 05:00:00 21.4 2 Sur 6 Sudeste 0 -- -- 41
2019-07-15 04:00:00 22.5 3 Sudeste 5 Sudeste 0 -- -- 38
2019-07-15 03:00:00 21.6 0 Calma 5 Noroeste 0 -- -- 39
2019-07-15 02:00:00 25 4 Noroeste 9 Norte 0 -- -- 33
2019-07-15 01:00:00 25.7 6 Norte 11 Norte 0 -- -- 34
2019-07-15 00:00:00 27.1 8 Noroeste 15 Noroeste 0 -- -- 34
2019-07-14 23:00:00 28.7 6 Oeste 14 Oeste 0 -- -- 35
2019-07-14 22:00:00 29.8 8 Oeste 18 Oeste 0 -- -- 32
2019-07-14 21:00:00 30.9 13 Noroeste 26 Oeste 0 -- -- 31
2019-07-14 20:00:00 32 15 Oeste 29 Oeste 0 -- -- 29
2019-07-14 19:00:00 32.2 16 Oeste 30 Oeste 0 -- -- 29
2019-07-14 18:00:00 31.7 14 Noroeste 26 Noroeste 0 -- -- 31
2019-07-14 17:00:00 31.9 17 Noroeste 28 Sudoeste 0 -- -- 31
2019-07-14 16:00:00 31.2 10 Noroeste 35 Oeste 0 -- -- 32
2019-07-14 15:00:00 29.7 11 Noroeste 27 Noroeste 0 -- -- 36
2019-07-14 14:00:00 28.9 8 Noroeste 27 Noroeste 0 -- -- 37
2019-07-14 13:00:00 27.4 12 Noroeste 31 Noroeste 0 -- -- 41
2019-07-14 12:00:00 26.4 13 Noroeste 29 Noroeste 0 -- -- 44
2019-07-14 11:00:00 25 17 Noroeste 32 Oeste 0 -- -- 47
2019-07-14 10:00:00 23.7 17 Noroeste 29 Noroeste 0 -- -- 51
2019-07-14 09:00:00 22 12 Oeste 22 Oeste 0 -- -- 59
2019-07-14 08:00:00 20.1 6 Sudoeste 17 Sudoeste 0 -- -- 61
2019-07-14 07:00:00 19.3 6 Sudoeste 14 Oeste 0 -- -- 62
2019-07-14 06:00:00 19.8 3 Sudoeste 9 Sudoeste 0 -- -- 56
2019-07-14 05:00:00 20.3 9 Sur 13 Sudoeste 0 -- -- 54
2019-07-14 04:00:00 20.8 5 Sudoeste 10 Sudoeste 0 -- -- 50
2019-07-14 03:00:00 21.9 8 Sudoeste 18 Sudoeste 0 -- -- 47
2019-07-14 02:00:00 22.6 8 Oeste 21 Oeste 0 -- -- 44
2019-07-14 01:00:00 23.6 9 Sudoeste 24 Sudoeste 0 -- -- 41
2019-07-14 00:00:00 24.8 13 Oeste 32 Oeste 0 -- -- 39
2019-07-13 23:00:00 25.9 17 Oeste 32 Sudoeste 0 -- -- 38
2019-07-13 22:00:00 27.8 17 Oeste 32 Oeste 0 -- -- 36
2019-07-13 21:00:00 30.7 18 Sudoeste 37 Sudoeste 0 -- -- 24
2019-07-13 20:00:00 32.9 17 Sudoeste 46 Sur 0 -- -- 21
2019-07-13 19:00:00 34.8 15 Sur 45 Sur 0 -- -- 19
2019-07-13 18:00:00 34.8 19 Sur 39 Sur 0 -- -- 20
2019-07-13 17:00:00 34.5 18 Sur 40 Sur 0 -- -- 25
2019-07-13 16:00:00 34 13 Sudoeste 26 Sur 0 -- -- 28
2019-07-13 15:00:00 32.2 7 Sudoeste 26 Sudoeste 0 -- -- 32
2019-07-13 14:00:00 30.3 13 Oeste 25 Oeste 0 -- -- 37
2019-07-13 13:00:00 30.4 9 Sudoeste 17 Oeste 0 -- -- 36
2019-07-13 12:00:00 31.3 5 Noroeste 22 Sudoeste 0 -- -- 33
2019-07-13 11:00:00 28.8 11 Oeste 21 Oeste 0 -- -- 39
2019-07-13 10:00:00 27.1 9 Noroeste 19 Oeste 0 -- -- 41
2019-07-13 09:00:00 26.7 7 Sudoeste 13 Sudoeste 0 -- -- 41
2019-07-13 08:00:00 26.2 0 Calma 20 Oeste 0 -- -- 40
2019-07-13 07:00:00 26.2 11 Oeste 18 Noroeste 0 -- -- 37
2019-07-13 06:00:00 26.3 7 Sudeste 13 Sudeste 0 -- -- 33
2019-07-13 05:00:00 27.5 8 Sur 13 Sur 0 -- -- 31
2019-07-13 04:00:00 27.1 7 Sudeste 14 Sudeste 0 -- -- 35
2019-07-13 03:00:00 28.1 6 Sudeste 10 Sudeste 0 -- -- 35
2019-07-13 02:00:00 28.1 4 Sudeste 10 Sudeste 0 -- -- 35
2019-07-13 01:00:00 28.4 4 Sur 10 Sudeste 0 -- -- 34
2019-07-13 00:00:00 29.3 3 Sudoeste 23 Oeste 0 -- -- 32
2019-07-12 23:00:00 30.9 12 Oeste 26 Oeste 0 -- -- 29
2019-07-12 22:00:00 33.4 0 Calma 8 Sudoeste 0 -- -- 24
2019-07-12 21:00:00 36 5 Sudoeste 19 Noroeste 0 -- -- 21
2019-07-12 20:00:00 37.3 10 Norte 19 Norte 0 -- -- 19
2019-07-12 19:00:00 37.9 4 Sudoeste 14 Este 0 -- -- 18
2019-07-12 18:00:00 39.2 4 Nordeste 16 Nordeste 0 -- -- 17
2019-07-12 17:00:00 37.8 6 Sudeste 25 Sur 0 -- -- 18
2019-07-12 16:00:00 38.5 7 Sur 20 Este 0 -- -- 18
2019-07-12 15:00:00 38 4 Este 18 Sudeste 0 -- -- 18
2019-07-12 14:00:00 37.8 6 Sudeste 18 Sudoeste 0 -- -- 19
2019-07-12 13:00:00 37.1 4 Sur 10 Oeste 0 -- -- 19
2019-07-12 12:00:00 34.2 4 Oeste 11 Oeste 0 -- -- 21
2019-07-12 11:00:00 32.2 5 Oeste 14 Oeste 0 -- -- 24
2019-07-12 10:00:00 30.2 6 Sudoeste 16 Sudeste 0 -- -- 25
2019-07-12 09:00:00 26.5 8 Sur 19 Sur 0 -- -- 33
2019-07-12 08:00:00 25.2 8 Sur 14 Sur 0 -- -- 36
2019-07-12 07:00:00 23.6 3 Sur 10 Sur 0 -- -- 34
2019-07-12 06:00:00 22 4 Oeste 7 Sudeste 0 -- -- 35
2019-07-12 05:00:00 23.7 2 Sudeste 10 Sudeste 0 -- -- 32
2019-07-12 04:00:00 24.6 6 Sur 12 Sur 0 -- -- 30
2019-07-12 03:00:00 26.1 3 Sudoeste 8 Noroeste 0 -- -- 28
2019-07-12 02:00:00 27.3 2 Nordeste 11 Sudeste 0 -- -- 27
2019-07-12 01:00:00 29.6 6 Sur 10 Sur 0 -- -- 24
2019-07-12 00:00:00 30.1 5 Sur 9 Sur 0 -- -- 24
2019-07-11 23:00:00 31.5 2 Sudeste 9 Sudeste 0 -- -- 23
2019-07-11 22:00:00 33.5 5 Sudeste 14 Este 0 -- -- 21
2019-07-11 21:00:00 36.1 6 Este 17 Este 0 -- -- 20
2019-07-11 20:00:00 37.9 4 Este 18 Este 0 -- -- 18
2019-07-11 19:00:00 37.5 7 Noroeste 14 Norte 0 -- -- 18
2019-07-11 18:00:00 36.9 6 Sur 16 Sur 0 -- -- 19
2019-07-11 17:00:00 36.5 6 Sudeste 20 Sudeste 0 -- -- 19
2019-07-11 16:00:00 35.4 9 Noroeste 17 Noroeste 0 -- -- 21
2019-07-11 15:00:00 35.2 5 Este 18 Sudeste 0 -- -- 21
2019-07-11 14:00:00 33.9 8 Este 21 Nordeste 0 -- -- 23
2019-07-11 13:00:00 33.5 5 Este 18 Este 0 -- -- 25
2019-07-11 12:00:00 31.9 6 Sudeste 11 Sudoeste 0 -- -- 30
2019-07-11 11:00:00 29.9 3 Noroeste 13 Sudoeste 0 -- -- 33
2019-07-11 10:00:00 26.8 7 Sur 19 Sudeste 0 -- -- 42
2019-07-11 09:00:00 24.1 5 Sudeste 15 Sudeste 0 -- -- 45
2019-07-11 08:00:00 21.8 0 Calma 7 Sur 0 -- -- 38
2019-07-11 07:00:00 20 2 Noroeste 11 Nordeste 0 -- -- 41
2019-07-11 06:00:00 22.2 3 Sur 11 Sudeste 0 -- -- 36
2019-07-11 05:00:00 22.8 4 Sur 14 Sur 0 -- -- 36
2019-07-11 04:00:00 22.5 4 Sudeste 9 Sur 0 -- -- 36
2019-07-11 03:00:00 21.9 2 Sur 12 Sudeste 0 -- -- 37
2019-07-11 02:00:00 22.9 5 Sur 10 Sudeste 0 -- -- 34
2019-07-11 01:00:00 24 4 Sur 7 Sur 0 -- -- 33
2019-07-11 00:00:00 23.1 0 Calma 3 Norte 0 -- -- 34
2019-07-10 23:00:00 26.4 3 Nordeste 9 Norte 0 -- -- 30
2019-07-10 22:00:00 28.1 6 Norte 16 Norte 0 -- -- 28
2019-07-10 21:00:00 30.3 9 Norte 19 Nordeste 0 -- -- 26
2019-07-10 20:00:00 32.2 11 Norte 22 Nordeste 0 -- -- 24
2019-07-10 19:00:00 31.5 8 Noroeste 17 Oeste 0 -- -- 24
2019-07-10 18:00:00 32.3 5 Noroeste 15 Oeste 0 -- -- 23
2019-07-10 17:00:00 31 7 Noroeste 16 Noroeste 0 -- -- 24
2019-07-10 16:00:00 30.7 5 Sudoeste 21 Oeste 0 -- -- 24
2019-07-10 15:00:00 30.3 10 Sudoeste 20 Sudoeste 0 -- -- 25
2019-07-10 14:00:00 28.9 6 Oeste 17 Nordeste 0 -- -- 28
2019-07-10 13:00:00 27.5 7 Nordeste 15 Nordeste 0 -- -- 32
2019-07-10 12:00:00 25.7 8 Norte 18 Norte 0 -- -- 36
2019-07-10 11:00:00 23.8 9 Norte 15 Nordeste 0 -- -- 42
2019-07-10 10:00:00 21.8 6 Norte 15 Norte 0 -- -- 47
2019-07-10 09:00:00 19.4 7 Nordeste 14 Nordeste 0 -- -- 56
2019-07-10 08:00:00 18.6 4 Norte 8 Norte 0 -- -- 57
2019-07-10 07:00:00 16.5 4 Norte 6 Norte 0 -- -- 61
2019-07-10 06:00:00 17.5 3 Norte 5 Norte 0 -- -- 58
2019-07-10 05:00:00 18.2 0 Calma 5 Norte 0 -- -- 57
2019-07-10 04:00:00 18.7 4 Norte 10 Norte 0 -- -- 55
2019-07-10 03:00:00 19.9 7 Norte 12 Nordeste 0 -- -- 51
2019-07-10 02:00:00 21.2 6 Nordeste 11 Nordeste 0 -- -- 48
2019-07-10 01:00:00 21.7 6 Nordeste 17 Nordeste 0 -- -- 45
2019-07-10 00:00:00 23 12 Nordeste 22 Nordeste 0 -- -- 42
2019-07-09 23:00:00 24.2 16 Nordeste 39 Nordeste 0 -- -- 40
2019-07-09 22:00:00 26.2 15 Norte 26 Norte 0 -- -- 36
2019-07-09 21:00:00 27.8 12 Norte 18 Noroeste 0 -- -- 28
2019-07-09 20:00:00 29.5 7 Noroeste 19 Oeste 0 -- -- 23
2019-07-09 19:00:00 29.3 8 Oeste 22 Oeste 0 -- -- 24
2019-07-09 18:00:00 28.3 10 Norte 22 Noroeste 0 -- -- 26
2019-07-09 17:00:00 29 7 Oeste 23 Norte 0 -- -- 25
2019-07-09 16:00:00 27.8 10 Sudoeste 22 Oeste 0 -- -- 28
2019-07-09 15:00:00 27.6 10 Sudoeste 28 Oeste 0 -- -- 29
2019-07-09 14:00:00 26 9 Noroeste 23 Noroeste 0 -- -- 33
2019-07-09 13:00:00 25.2 11 Noroeste 21 Noroeste 0 -- -- 35
2019-07-09 12:00:00 24.2 10 Noroeste 23 Oeste 0 -- -- 39
2019-07-09 11:00:00 22.9 7 Noroeste 21 Oeste 0 -- -- 44
2019-07-09 10:00:00 21.8 7 Noroeste 13 Noroeste 0 -- -- 47
2019-07-09 09:00:00 19.7 3 Sur 8 Sudoeste 0 -- -- 50
2019-07-09 08:00:00 18.2 0 Calma 13 Norte 0 -- -- 51
2019-07-09 07:00:00 15.9 5 Sur 9 Sudeste 0 -- -- 57
2019-07-09 06:00:00 15.9 6 Sudeste 9 Sudeste 0 -- -- 58
2019-07-09 05:00:00 16.9 3 Sur 6 Sur 0 -- -- 56
2019-07-09 04:00:00 17.1 0 Calma 10 Sudoeste 0 -- -- 55
2019-07-09 03:00:00 17.7 5 Sudoeste 11 Sudoeste 0 -- -- 55
2019-07-09 02:00:00 18.7 6 Oeste 13 Oeste 0 -- -- 50
2019-07-09 01:00:00 20.1 8 Oeste 19 Noroeste 0 -- -- 46
2019-07-09 00:00:00 21.5 10 Oeste 27 Oeste 0 -- -- 40
2019-07-08 23:00:00 22.4 14 Oeste 37 Oeste 0 -- -- 39
2019-07-08 22:00:00 23.7 24 Oeste 41 Oeste 0 -- -- 37
2019-07-08 21:00:00 25.6 18 Oeste 34 Oeste 0 -- -- 33
2019-07-08 20:00:00 26.5 16 Oeste 28 Oeste 0 -- -- 31
2019-07-08 19:00:00 29 14 Oeste 27 Oeste 0 -- -- 26
2019-07-08 18:00:00 28.8 10 Sudoeste 30 Sur 0 -- -- 25
2019-07-08 17:00:00 29.4 18 Sudoeste 29 Sudoeste 0 -- -- 24
2019-07-08 16:00:00 28.9 15 Sudoeste 27 Oeste 0 -- -- 25
2019-07-08 15:00:00 29.6 6 Norte 25 Sur 0 -- -- 26
2019-07-08 14:00:00 28.1 12 Sudoeste 32 Sur 0 -- -- 30
2019-07-08 13:00:00 27.8 8 Sur 31 Este 0 -- -- 32
2019-07-08 12:00:00 25.7 7 Sur 15 Sur 0 -- -- 36
2019-07-08 11:00:00 25 4 Noroeste 15 Oeste 0 -- -- 37
2019-07-08 10:00:00 22.7 6 Oeste 14 Noroeste 0 -- -- 43
2019-07-08 09:00:00 21 4 Oeste 9 Sudeste 0 -- -- 48
2019-07-08 08:00:00 19.4 4 Sur 10 Sudoeste 0 -- -- 51
2019-07-08 07:00:00 18.3 4 Sur 8 Sur 0 -- -- 53
2019-07-08 06:00:00 18.7 2 Sur 9 Sur 0 -- -- 50
2019-07-08 05:00:00 19.4 5 Sur 9 Sur 0 -- -- 44
2019-07-08 04:00:00 20.5 6 Sudoeste 14 Sudoeste 0 -- -- 42
2019-07-08 03:00:00 21.6 6 Sudoeste 12 Sudoeste 0 -- -- 37
2019-07-08 02:00:00 23.2 7 Sudoeste 23 Oeste 0 -- -- 32
2019-07-08 01:00:00 24.5 10 Oeste 18 Oeste 0 -- -- 33
2019-07-08 00:00:00 25.5 9 Sudoeste 22 Oeste 0 -- -- 33
2019-07-07 23:00:00 27.2 15 Oeste 27 Oeste 0 -- -- 29
2019-07-07 22:00:00 28.9 15 Oeste 34 Oeste 0 -- -- 25
2019-07-07 21:00:00 31.5 15 Oeste 25 Oeste 0 -- -- 22
2019-07-07 20:00:00 33.3 15 Sudoeste 30 Sudoeste 0 -- -- 21
2019-07-07 19:00:00 33.9 13 Sudoeste 27 Sudoeste 0 -- -- 21
2019-07-07 18:00:00 34.1 12 Sudoeste 27 Sudoeste 0 -- -- 21
2019-07-07 17:00:00 34.5 6 Sudoeste 30 Sur 0 -- -- 21
2019-07-07 16:00:00 33.5 13 Sudeste 29 Sudeste 0 -- -- 21
2019-07-07 15:00:00 31.5 10 Sudoeste 22 Sudeste 0 -- -- 24
2019-07-07 14:00:00 30.5 11 Sudoeste 23 Sudoeste 0 -- -- 25
2019-07-07 13:00:00 29 7 Norte 18 Este 0 -- -- 27
2019-07-07 12:00:00 28.6 5 Nordeste 16 Nordeste 0 -- -- 29
2019-07-07 11:00:00 26.9 3 Sudoeste 12 Oeste 0 -- -- 31
2019-07-07 10:00:00 25.1 3 Oeste 10 Oeste 0 -- -- 34
2019-07-07 09:00:00 22.4 3 Oeste 7 Oeste 0 -- -- 37
2019-07-07 08:00:00 21.6 0 Calma 9 Sur 0 -- -- 37
2019-07-07 07:00:00 18.3 4 Sur 12 Sudoeste 0 -- -- 42
2019-07-07 06:00:00 18.8 5 Sur 14 Sudoeste 0 -- -- 40
2019-07-07 05:00:00 20.1 6 Sudoeste 11 Sudoeste 0 -- -- 39
2019-07-07 04:00:00 20.5 3 Sudeste 9 Noroeste 0 -- -- 35
2019-07-07 03:00:00 22.3 2 Sudeste 10 Sudoeste 0 -- -- 33
2019-07-07 02:00:00 23 6 Sur 11 Sudoeste 0 -- -- 33
2019-07-07 01:00:00 24 6 Sudoeste 10 Sudoeste 0 -- -- 31
2019-07-07 00:00:00 25.3 6 Sudoeste 13 Sudoeste 0 -- -- 26
2019-07-06 23:00:00 27.1 6 Oeste 18 Oeste 0 -- -- 22
2019-07-06 22:00:00 29.2 12 Oeste 26 Oeste 0 -- -- 19
2019-07-06 21:00:00 31.7 15 Oeste 28 Oeste 0 -- -- 20
2019-07-06 20:00:00 33 14 Oeste 32 Oeste 0 -- -- 19
2019-07-06 19:00:00 33.6 19 Sudoeste 35 Sudoeste 0 -- -- 19
2019-07-06 18:00:00 33.8 21 Sudoeste 41 Sudoeste 0 -- -- 19
2019-07-06 17:00:00 33.9 21 Sudoeste 38 Sur 0 -- -- 20
2019-07-06 16:00:00 33.6 13 Sudoeste 37 Sudoeste 0 -- -- 17
2019-07-06 15:00:00 33.3 20 Sudoeste 39 Sur 0 -- -- 17
2019-07-06 14:00:00 32.2 10 Sudoeste 34 Sudoeste 0 -- -- 20
2019-07-06 13:00:00 31.2 12 Sur 30 Sudoeste 0 -- -- 22
2019-07-06 12:00:00 29.9 13 Sudoeste 28 Sudoeste 0 -- -- 24
2019-07-06 11:00:00 27.7 10 Sudoeste 21 Sudoeste 0 -- -- 29
2019-07-06 10:00:00 27.4 9 Sudeste 17 Sur 0 -- -- 29
2019-07-06 09:00:00 24.6 3 Este 10 Sudeste 0 -- -- 34
2019-07-06 08:00:00 21.2 7 Sudeste 11 Sudeste 0 -- -- 36
2019-07-06 07:00:00 18.6 5 Sur 9 Sudeste 0 -- -- 39
2019-07-06 06:00:00 20 3 Sudeste 11 Sudeste 0 -- -- 37
2019-07-06 05:00:00 20.5 3 Sudeste 9 Sur 0 -- -- 36
2019-07-06 04:00:00 21.3 3 Sur 11 Sudeste 0 -- -- 34
2019-07-06 03:00:00 22.4 5 Sudoeste 11 Sur 0 -- -- 32
2019-07-06 02:00:00 23.9 8 Sudoeste 14 Sudoeste 0 -- -- 29
2019-07-06 01:00:00 24.4 6 Sudoeste 11 Sur 0 -- -- 28
2019-07-06 00:00:00 25.8 5 Sudoeste 14 Sudoeste 0 -- -- 27
2019-07-05 23:00:00 27.6 6 Sudoeste 14 Sudoeste 0 -- -- 27
2019-07-05 22:00:00 29.4 9 Sudoeste 21 Sudoeste 0 -- -- 25
2019-07-05 21:00:00 31.9 12 Sudoeste 31 Sudoeste 0 -- -- 21
2019-07-05 20:00:00 32.9 13 Sudoeste 28 Sudoeste 0 -- -- 21
2019-07-05 19:00:00 33.5 15 Sudoeste 34 Sudoeste 0 -- -- 20
2019-07-05 18:00:00 33.3 17 Sudoeste 33 Oeste 0 -- -- 22
2019-07-05 17:00:00 33.2 13 Sudoeste 37 Sudoeste 0 -- -- 22
2019-07-05 16:00:00 32.9 12 Sudoeste 35 Sudoeste 0 -- -- 22
2019-07-05 15:00:00 32.4 12 Sur 27 Sur 0 -- -- 23
2019-07-05 14:00:00 30.5 12 Sur 28 Sur 0 -- -- 30
2019-07-05 13:00:00 29.3 10 Sur 27 Sur 0 -- -- 34
2019-07-05 12:00:00 28.2 9 Sur 19 Sudoeste 0 -- -- 37
2019-07-05 11:00:00 26.3 6 Oeste 15 Sudoeste 0 -- -- 43
2019-07-05 10:00:00 24.7 8 Sudoeste 17 Sudoeste 0 -- -- 45
2019-07-05 09:00:00 23.3 7 Sudoeste 13 Sudoeste 0 -- -- 45
2019-07-05 08:00:00 21.5 8 Sudoeste 13 Sudoeste 0 -- -- 47
2019-07-05 07:00:00 21.3 8 Sudoeste 15 Sudoeste 0 -- -- 47
2019-07-05 06:00:00 22 9 Sudoeste 16 Sudoeste 0 -- -- 46
2019-07-05 05:00:00 22.9 9 Sudoeste 16 Sudoeste 0 -- -- 44
2019-07-05 04:00:00 24.1 0 Calma 14 Oeste 0 -- -- 39
2019-07-05 03:00:00 25.1 9 Oeste 17 Oeste 0 -- -- 37
2019-07-05 02:00:00 25.9 12 Oeste 19 Oeste 0 -- -- 37
2019-07-05 01:00:00 26.3 3 Oeste 13 Nordeste 0 -- -- 38
2019-07-05 00:00:00 26.9 8 Nordeste 17 Oeste 0 -- -- 37
2019-07-04 23:00:00 27.8 8 Sudoeste 15 Sudoeste 0 -- -- 33
2019-07-04 22:00:00 29.8 9 Sudoeste 21 Sur 0 -- -- 29
2019-07-04 21:00:00 32 10 Sur 28 Sur 0 -- -- 25
2019-07-04 20:00:00 32.9 13 Sur 33 Sur 0 -- -- 24
2019-07-04 19:00:00 33.3 15 Sur 30 Sur 0 -- -- 23
2019-07-04 18:00:00 34.1 15 Sur 28 Sudeste 0 -- -- 21
2019-07-04 17:00:00 32.8 9 Este 26 Este 0 -- -- 22
2019-07-04 16:00:00 32.8 6 Sur 31 Este 0 -- -- 21
2019-07-04 15:00:00 32.2 12 Este 28 Nordeste 0 -- -- 22
2019-07-04 14:00:00 30.5 10 Este 28 Sudeste 0 -- -- 26
2019-07-04 13:00:00 29.8 12 Este 22 Este 0 -- -- 32
2019-07-04 12:00:00 28.5 9 Este 20 Norte 0 -- -- 33
2019-07-04 11:00:00 26.4 13 Nordeste 22 Nordeste 0 -- -- 37
2019-07-04 10:00:00 26 7 Noroeste 14 Noroeste 0 -- -- 36
2019-07-04 09:00:00 24.6 5 Sudoeste 9 Sudoeste 0 -- -- 38
2019-07-04 08:00:00 21.7 6 Sur 10 Sudoeste 0 -- -- 43
2019-07-04 07:00:00 20.4 5 Sur 9 Sudeste 0 -- -- 46
2019-07-04 06:00:00 21.4 2 Sudeste 6 Sur 0 -- -- 45
2019-07-04 05:00:00 22.5 3 Sur 8 Noroeste 0 -- -- 43
2019-07-04 04:00:00 23.6 6 Noroeste 15 Sudeste 0 -- -- 40
2019-07-04 03:00:00 25 9 Sudeste 25 Sudeste 0 -- -- 38
2019-07-04 02:00:00 25.6 10 Sudeste 32 Sudeste 0 -- -- 37
2019-07-04 01:00:00 27.2 12 Sudeste 40 Nordeste 0 -- -- 32
2019-07-04 00:00:00 27.6 5 Sudoeste 14 Sur 0 -- -- 30
2019-07-03 23:00:00 29.2 6 Sudoeste 32 Sur 0 -- -- 28
2019-07-03 22:00:00 31.1 8 Sur 18 Sudeste 0 -- -- 22
2019-07-03 21:00:00 32.9 7 Sudeste 24 Sur 0 -- -- 21
2019-07-03 20:00:00 34.4 10 Sur 30 Sur 0 -- -- 18
2019-07-03 19:00:00 35.4 10 Este 30 Sur 0 -- -- 18
2019-07-03 18:00:00 34.6 7 Este 33 Sudeste 0 -- -- 21
2019-07-03 17:00:00 34.9 16 Sudeste 36 Este 0 -- -- 22
2019-07-03 16:00:00 34.1 11 Sudeste 35 Este 0 -- -- 22
2019-07-03 15:00:00 33.2 15 Sudeste 36 Este 0 -- -- 23
2019-07-03 14:00:00 33 13 Este 26 Este 0 -- -- 25
2019-07-03 13:00:00 31.3 10 Sudeste 22 Sudeste 0 -- -- 29
2019-07-03 12:00:00 30.2 5 Sudeste 23 Sur 0 -- -- 29
2019-07-03 11:00:00 29.1 4 Sudeste 12 Sudeste 0 -- -- 32
2019-07-03 10:00:00 25.6 6 Sudeste 16 Sudeste 0 -- -- 45
2019-07-03 09:00:00 22.5 10 Sudeste 19 Sur 0 -- -- 53
2019-07-03 08:00:00 21.5 3 Sur 9 Sudeste 0 -- -- 56
2019-07-03 07:00:00 20.6 5 Sudeste 12 Este 0 -- -- 58
2019-07-03 06:00:00 21.3 4 Este 13 Este 0 -- -- 55
2019-07-03 05:00:00 22.2 5 Sudeste 19 Este 0 -- -- 52
2019-07-03 04:00:00 23.4 4 Este 9 Nordeste 0 -- -- 52
2019-07-03 03:00:00 24.6 4 Este 12 Este 0 -- -- 46
2019-07-03 02:00:00 25.3 2 Norte 13 Este 0 -- -- 46
2019-07-03 01:00:00 26.7 6 Nordeste 14 Noroeste 0 -- -- 45
2019-07-03 00:00:00 27.9 10 Noroeste 15 Noroeste 0 -- -- 31
2019-07-02 23:00:00 29.1 5 Sudeste 19 Sur 0 -- -- 36
2019-07-02 22:00:00 30.4 6 Sudoeste 12 Sur 0 -- -- 23
2019-07-02 21:00:00 32.6 8 Sur 18 Este 0 -- -- 22
2019-07-02 20:00:00 34 6 Sudeste 17 Sudeste 0 -- -- 24
2019-07-02 19:00:00 33.9 8 Sudeste 21 Sur 0 -- -- 24
2019-07-02 18:00:00 33.5 10 Sudeste 23 Este 0 -- -- 26
2019-07-02 17:00:00 34.6 8 Sudeste 22 Sudeste 0 -- -- 24
2019-07-02 16:00:00 34.2 10 Sudeste 27 Este 0 -- -- 25
2019-07-02 15:00:00 32.8 10 Este 23 Este 0 -- -- 29
2019-07-02 14:00:00 31.6 7 Sudeste 18 Este 0 -- -- 32
2019-07-02 13:00:00 29.8 7 Este 18 Sudeste 0 -- -- 35
2019-07-02 12:00:00 28.1 4 Norte 12 Nordeste 0 -- -- 42
2019-07-02 11:00:00 27 4 Sudoeste 9 Sur 0 -- -- 39
2019-07-02 10:00:00 25.8 3 Sur 13 Este 0 -- -- 43
2019-07-02 09:00:00 23.1 6 Sudeste 13 Sudeste 0 -- -- 57
2019-07-02 08:00:00 21.5 4 Sudeste 9 Sudeste 0 -- -- 61
2019-07-02 07:00:00 20 3 Sudeste 9 Este 0 -- -- 60
2019-07-02 06:00:00 20.7 4 Sudeste 9 Sur 0 -- -- 60
2019-07-02 05:00:00 21 3 Sur 8 Sudeste 0 -- -- 48
2019-07-02 04:00:00 22 6 Sur 9 Sudeste 0 -- -- 35
2019-07-02 03:00:00 22.5 2 Sudeste 13 Norte 0 -- -- 39
2019-07-02 02:00:00 23.6 6 Sur 9 Sudeste 0 -- -- 35
2019-07-02 01:00:00 25.1 3 Sudoeste 17 Norte 0 -- -- 35
2019-07-02 00:00:00 25.8 9 Noroeste 19 Nordeste 0 -- -- 30
2019-07-01 23:00:00 27.1 6 Oeste 13 Oeste 0 -- -- 30
2019-07-01 22:00:00 29 10 Noroeste 22 Oeste 0 -- -- 29
2019-07-01 21:00:00 31.2 14 Noroeste 34 Noroeste 0 -- -- 26
2019-07-01 20:00:00 32.7 14 Noroeste 24 Oeste 0 -- -- 26
2019-07-01 19:00:00 30.1 17 Oeste 26 Oeste 0 -- -- 31
2019-07-01 18:00:00 28.2 6 Oeste 28 Nordeste 0 -- -- 44
2019-07-01 17:00:00 24.9 20 Nordeste 44 Nordeste 0 -- -- 48
2019-07-01 16:00:00 33.4 7 Noroeste 21 Oeste 0 -- -- 27
2019-07-01 15:00:00 33.2 4 Norte 21 Este 0 -- -- 26
2019-07-01 14:00:00 32.6 10 Oeste 24 Noroeste 0 -- -- 25
2019-07-01 13:00:00 32.2 11 Noroeste 20 Noroeste 0 -- -- 25
2019-07-01 12:00:00 31 9 Noroeste 17 Noroeste 0 -- -- 23
2019-07-01 11:00:00 29.6 8 Noroeste 17 Noroeste 0 -- -- 26
2019-07-01 10:00:00 27.6 9 Oeste 19 Oeste 0 -- -- 32
2019-07-01 09:00:00 25.4 9 Sudoeste 15 Sudoeste 0 -- -- 39
2019-07-01 08:00:00 23.8 5 Sur 10 Sudoeste 0 -- -- 47
2019-07-01 07:00:00 23.4 4 Sudoeste 15 Oeste 0 -- -- 46
2019-07-01 06:00:00 24.4 6 Sudoeste 24 Oeste 0 -- -- 47
2019-07-01 05:00:00 24.8 9 Oeste 15 Oeste 0 -- -- 47
2019-07-01 04:00:00 25.6 3 Oeste 12 Sudoeste 0 -- -- 42
2019-07-01 03:00:00 26.3 4 Sudoeste 20 Sudoeste 0 -- -- 37
2019-07-01 02:00:00 27.3 9 Sudoeste 21 Oeste 0 -- -- 32
2019-07-01 01:00:00 28.1 9 Sudoeste 14 Sudoeste 0 -- -- 30
2019-07-01 00:00:00 29.5 7 Oeste 20 Oeste 0 -- -- 28
2019-06-30 23:00:00 31.3 5 Sudoeste 11 Sudoeste 0 -- -- 24
2019-06-30 22:00:00 33.1 6 Sudoeste 14 Sudoeste 0 -- -- 22
2019-06-30 21:00:00 35.5 8 Sudoeste 24 Sur 0 -- -- 19
2019-06-30 20:00:00 36.6 13 Sudoeste 28 Sudoeste 0 -- -- 19
2019-06-30 19:00:00 37.4 12 Sur 24 Sudoeste 0 -- -- 19
2019-06-30 18:00:00 37.9 12 Sur 30 Sur 0 -- -- 19
2019-06-30 17:00:00 38.4 6 Sur 59 Nordeste 0 -- -- 16
2019-06-30 16:00:00 37.7 8 Sudeste 30 Sur 0 -- -- 19
2019-06-30 15:00:00 37.8 12 Sur 25 Sur 0 -- -- 20
2019-06-30 14:00:00 35.3 8 Nordeste 24 Sudeste 0 -- -- 22
2019-06-30 13:00:00 34.1 9 Nordeste 19 Norte 0 -- -- 25
2019-06-30 12:00:00 32.8 8 Nordeste 15 Nordeste 0 -- -- 29
2019-06-30 11:00:00 31.3 5 Nordeste 13 Nordeste 0 -- -- 32
2019-06-30 10:00:00 28.6 2 Nordeste 9 Sur 0 -- -- 36
2019-06-30 09:00:00 26.8 2 Sur 10 Sur 0 -- -- 39
2019-06-30 08:00:00 24.9 5 Sur 10 Sudeste 0 -- -- 36
2019-06-30 07:00:00 24.1 3 Sur 9 Sur 0 -- -- 30
2019-06-30 06:00:00 24.1 7 Sudeste 12 Sur 0 -- -- 24
2019-06-30 05:00:00 25.1 6 Sur 15 Sur 0 -- -- 23
2019-06-30 04:00:00 26.4 8 Sur 17 Sudeste 0 -- -- 20
2019-06-30 03:00:00 28.1 8 Sudeste 25 Sudeste 0 -- -- 17
2019-06-30 02:00:00 29.2 13 Sudeste 33 Sudeste 0 -- -- 16
2019-06-30 01:00:00 30.8 20 Sudeste 38 Este 0 -- -- 15
2019-06-30 00:00:00 32.5 17 Sudeste 35 Sudeste 0 -- -- 15
2019-06-29 23:00:00 33.8 17 Sudeste 32 Sudeste 0 -- -- 12
2019-06-29 22:00:00 35.5 13 Sudeste 29 Sudeste 0 -- -- 11
2019-06-29 21:00:00 37.6 10 Sudeste 24 Sudeste 0 -- -- 11
2019-06-29 20:00:00 38.9 12 Sudeste 25 Sudeste 0 -- -- 11
2019-06-29 19:00:00 39.7 12 Este 27 Sudeste 0 -- -- 12
2019-06-29 18:00:00 40 11 Este 26 Sudeste 0 -- -- 13
2019-06-29 17:00:00 40.3 7 Sudeste 22 Sudeste 0 -- -- 15
2019-06-29 16:00:00 39.1 10 Este 22 Este 0 -- -- 16
2019-06-29 15:00:00 38.3 11 Nordeste 21 Este 0 -- -- 19
2019-06-29 14:00:00 36.5 8 Norte 23 Norte 0 -- -- 20
2019-06-29 13:00:00 35.5 4 Norte 14 Nordeste 0 -- -- 21
2019-06-29 12:00:00 33.4 6 Norte 13 Oeste 0 -- -- 23
2019-06-29 11:00:00 31.3 8 Oeste 17 Sudoeste 0 -- -- 24
2019-06-29 10:00:00 29.2 6 Sudoeste 15 Sudoeste 0 -- -- 29
2019-06-29 09:00:00 25.9 6 Sur 18 Sur 0 -- -- 33
2019-06-29 08:00:00 23.1 11 Sur 18 Sur 0 -- -- 38
2019-06-29 07:00:00 23 3 Sur 12 Sudeste 0 -- -- 36
2019-06-29 06:00:00 22.3 2 Noroeste 13 Sudeste 0 -- -- 38
2019-06-29 05:00:00 24.7 6 Sur 31 Sudeste 0 -- -- 34
2019-06-29 04:00:00 26.7 18 Sudeste 37 Este 0 -- -- 30
2019-06-29 03:00:00 29.1 22 Sudeste 42 Sudeste 0 -- -- 25
2019-06-29 02:00:00 29.6 18 Sudeste 37 Sudeste 0 -- -- 22
2019-06-29 01:00:00 30.6 19 Sudeste 36 Sudeste 0 -- -- 22
2019-06-29 00:00:00 31.1 12 Sudeste 44 Sudeste 0 -- -- 21
2019-06-28 23:00:00 33 23 Sudeste 44 Este 0 -- -- 16
2019-06-28 22:00:00 34.2 22 Sudeste 46 Sudeste 0 -- -- 17
2019-06-28 21:00:00 36.1 23 Este 45 Este 0 -- -- 16
2019-06-28 20:00:00 37.8 22 Este 42 Sudeste 0 -- -- 15
2019-06-28 19:00:00 38.7 22 Este 48 Este 0 -- -- 14
2019-06-28 18:00:00 39.2 23 Este 49 Sudeste 0 -- -- 14
2019-06-28 17:00:00 39.4 23 Este 48 Este 0 -- -- 12
2019-06-28 16:00:00 39.3 22 Este 45 Este 0 -- -- 13
2019-06-28 15:00:00 38.4 20 Este 42 Sudeste 0 -- -- 16
2019-06-28 14:00:00 36.5 15 Sudeste 34 Este 0 -- -- 20
2019-06-28 13:00:00 34.1 13 Este 26 Este 0 -- -- 24
2019-06-28 12:00:00 31.5 15 Este 28 Este 0 -- -- 29
2019-06-28 11:00:00 29.5 11 Este 26 Este 0 -- -- 33
2019-06-28 10:00:00 27 9 Este 24 Este 0 -- -- 39
2019-06-28 09:00:00 24.7 14 Este 31 Este 0 -- -- 43
2019-06-28 08:00:00 23.1 9 Sudeste 19 Sudeste 0 -- -- 48
2019-06-28 07:00:00 21.6 8 Sudeste 21 Sudeste 0 -- -- 53
2019-06-28 06:00:00 22.6 10 Sudoeste 18 Sudoeste 0 -- -- 49
2019-06-28 05:00:00 23.1 9 Sudeste 22 Sudeste 0 -- -- 48
2019-06-28 04:00:00 24.3 9 Sudeste 25 Sudeste 0 -- -- 45
2019-06-28 03:00:00 25.2 12 Sudeste 22 Sudeste 0 -- -- 42
2019-06-28 02:00:00 27 5 Sur 30 Sudeste 0 -- -- 34
2019-06-28 01:00:00 28.7 17 Sudeste 40 Sudeste 0 -- -- 27
2019-06-28 00:00:00 30 21 Sudeste 48 Sudeste 0 -- -- 25
2019-06-27 23:00:00 31.3 27 Sudeste 54 Este 0 -- -- 25
2019-06-27 22:00:00 33.3 21 Este 48 Sudeste 0 -- -- 23
2019-06-27 21:00:00 37.2 9 Sudeste 18 Sudeste 0 -- -- 19
2019-06-27 20:00:00 38.4 8 Sudeste 22 Este 0 -- -- 20
2019-06-27 19:00:00 38.1 15 Sudeste 29 Sudeste 0 -- -- 20
2019-06-27 18:00:00 38.4 13 Sudeste 30 Sudeste 0 -- -- 21
2019-06-27 17:00:00 37.4 11 Sudeste 35 Sudeste 0 -- -- 22
2019-06-27 16:00:00 36.1 17 Sudeste 39 Sudeste 0 -- -- 24
2019-06-27 15:00:00 34.9 19 Sudeste 36 Sudeste 0 -- -- 27
2019-06-27 14:00:00 33.8 17 Sudeste 36 Sudeste 0 -- -- 28
2019-06-27 13:00:00 32.2 16 Sudeste 35 Sudeste 0 -- -- 31
2019-06-27 12:00:00 30.4 13 Sudeste 35 Sudeste 0 -- -- 37
2019-06-27 11:00:00 27.4 15 Sudeste 33 Sudeste 0 -- -- 44
2019-06-27 10:00:00 24.9 16 Sudeste 36 Sudeste 0 -- -- 51
2019-06-27 09:00:00 22.5 16 Sudeste 46 Sudeste 0 -- -- 58
2019-06-27 08:00:00 21.4 22 Sudeste 44 Este 0 -- -- 61
2019-06-27 07:00:00 21.3 17 Este 42 Este 0 -- -- 61
2019-06-27 06:00:00 21.8 18 Sudeste 36 Sudeste 0 -- -- 59
2019-06-27 05:00:00 22 17 Sudeste 37 Este 0 -- -- 62
2019-06-27 04:00:00 22.5 18 Sudeste 37 Sudeste 0 -- -- 60
2019-06-27 03:00:00 24.6 13 Sudeste 31 Sudeste 0 -- -- 54
2019-06-27 02:00:00 25.9 12 Sudeste 28 Sudeste 0 -- -- 51
2019-06-27 01:00:00 26.5 9 Sudeste 24 Este 0 -- -- 49
2019-06-27 00:00:00 27.5 5 Nordeste 30 Este 0 -- -- 47
2019-06-26 23:00:00 29.9 17 Este 35 Este 0 -- -- 42
2019-06-26 22:00:00 32.5 9 Este 23 Sudeste 0 -- -- 36
2019-06-26 21:00:00 34.7 9 Sudeste 22 Sudeste 0 -- -- 25
2019-06-26 20:00:00 35.7 10 Sudeste 22 Sudeste 0 -- -- 25
2019-06-26 19:00:00 35.5 8 Sudeste 30 Sur 0 -- -- 26
2019-06-26 18:00:00 34.6 13 Sur 31 Sur 0 -- -- 26
2019-06-26 17:00:00 35.6 10 Sudeste 41 Sur 0 -- -- 26
2019-06-26 16:00:00 34.6 10 Este 37 Sudeste 0 -- -- 28
2019-06-26 15:00:00 33.2 11 Este 27 Este 0 -- -- 31
2019-06-26 14:00:00 32 12 Este 30 Este 0 -- -- 32
2019-06-26 13:00:00 31.4 8 Sudeste 22 Sudeste 0 -- -- 31
2019-06-26 12:00:00 30.3 10 Sudeste 24 Sudeste 0 -- -- 34
2019-06-26 11:00:00 29.1 4 Sur 17 Sudoeste 0 -- -- 34
2019-06-26 10:00:00 27.1 5 Sudoeste 15 Sur 0 -- -- 35
2019-06-26 09:00:00 25.2 8 Sur 14 Sur 0 -- -- 36
2019-06-26 08:00:00 22.9 6 Sur 12 Sur 0 -- -- 51
2019-06-26 07:00:00 21.8 9 Sudeste 14 Sudeste 0 -- -- 51
2019-06-26 06:00:00 21.5 6 Sur 10 Sur 0 -- -- 50
2019-06-26 05:00:00 21.9 4 Sur 11 Sur 0 -- -- 51
2019-06-26 04:00:00 23.9 4 Sur 9 Sur 0 -- -- 35
2019-06-26 03:00:00 25.1 5 Sudeste 8 Sudeste 0 -- -- 31
2019-06-26 02:00:00 25.4 0 Calma 5 Nordeste 0 -- -- 32
2019-06-26 01:00:00 26.7 5 Nordeste 9 Sur 0 -- -- 29
2019-06-26 00:00:00 28.4 8 Sur 18 Sudoeste 0 -- -- 27
2019-06-25 23:00:00 29.4 8 Sudoeste 16 Sudoeste 0 -- -- 26
2019-06-25 22:00:00 31.3 9 Sudoeste 18 Sudoeste 0 -- -- 24
2019-06-25 21:00:00 33.9 10 Sur 27 Sur 0 -- -- 22
2019-06-25 20:00:00 34.6 15 Sur 34 Este 0 -- -- 21
2019-06-25 19:00:00 34.9 14 Sur 30 Sur 0 -- -- 22
2019-06-25 18:00:00 34.7 13 Sur 30 Sur 0 -- -- 24
2019-06-25 17:00:00 33.8 12 Sur 28 Sur 0 -- -- 23
2019-06-25 16:00:00 33.5 12 Sur 32 Sudoeste 0 -- -- 22
2019-06-25 15:00:00 32.4 13 Sur 28 Sur 0 -- -- 26
2019-06-25 14:00:00 31.4 13 Sur 30 Sudoeste 0 -- -- 27
2019-06-25 13:00:00 29.6 8 Sur 23 Sur 0 -- -- 38
2019-06-25 12:00:00 28.1 8 Sudeste 17 Sur 0 -- -- 42
2019-06-25 11:00:00 26.6 5 Sudeste 14 Sur 0 -- -- 45
2019-06-25 10:00:00 24.7 4 Sur 6 Sur 0 -- -- 53
2019-06-25 09:00:00 21.9 0 Calma 6 Noroeste 0 -- -- 60
2019-06-25 08:00:00 21.4 0 Calma 6 Sur 0 -- -- 60
2019-06-25 07:00:00 18.3 2 Sur 9 Sudoeste 0 -- -- 69
2019-06-25 06:00:00 18.3 4 Sur 9 Oeste 0 -- -- 68
2019-06-25 05:00:00 18.6 5 Sudoeste 8 Sur 0 -- -- 69
2019-06-25 04:00:00 19.2 3 Sudoeste 6 Sudoeste 0 -- -- 68
2019-06-25 03:00:00 19.9 3 Sudoeste 16 Sudoeste 0 -- -- 64
2019-06-25 02:00:00 20.6 4 Sudoeste 9 Oeste 0 -- -- 59
2019-06-25 01:00:00 21.5 4 Oeste 17 Oeste 0 -- -- 56
2019-06-25 00:00:00 23.3 9 Oeste 23 Oeste 0 -- -- 51
2019-06-24 23:00:00 25.4 11 Oeste 27 Oeste 0 -- -- 46
2019-06-24 22:00:00 28.3 7 Oeste 22 Sudoeste 0 -- -- 30
2019-06-24 21:00:00 29 14 Oeste 23 Oeste 0 -- -- 31
2019-06-24 20:00:00 29.8 12 Sudoeste 26 Sudoeste 0 -- -- 25
2019-06-24 19:00:00 31.1 13 Sudoeste 32 Oeste 0 -- -- 27
2019-06-24 18:00:00 31.2 10 Oeste 23 Sudoeste 0 -- -- 27
2019-06-24 17:00:00 31.9 10 Sur 25 Sur 0 -- -- 25
2019-06-24 16:00:00 30.7 15 Sudoeste 33 Sudeste 0 -- -- 26
2019-06-24 15:00:00 31.6 10 Sudeste 24 Sudeste 0 -- -- 26
2019-06-24 14:00:00 28.7 6 Sur 20 Sur 0 -- -- 29
2019-06-24 13:00:00 28.8 5 Sudeste 15 Nordeste 0 -- -- 29
2019-06-24 12:00:00 27.3 5 Noroeste 17 Sudoeste 0 -- -- 35
2019-06-24 11:00:00 25.8 4 Norte 10 Norte 0 -- -- 38
2019-06-24 10:00:00 25.2 3 Este 6 Este 0 -- -- 38
2019-06-24 09:00:00 22.4 0 Calma 6 Sur 0 -- -- 38
2019-06-24 08:00:00 20.4 4 Sur 6 Sur 0 -- -- 38
2019-06-24 07:00:00 19.7 3 Sudoeste 8 Oeste 0 -- -- 39
2019-06-24 06:00:00 20.6 4 Oeste 6 Oeste 0 -- -- 34
2019-06-24 05:00:00 20.4 2 Oeste 8 Noroeste 0 -- -- 34
2019-06-24 04:00:00 21.1 4 Noroeste 8 Norte 0 -- -- 35
2019-06-24 03:00:00 22.3 5 Norte 12 Noroeste 0 -- -- 34
2019-06-24 02:00:00 23.7 5 Noroeste 10 Nordeste 0 -- -- 31
2019-06-24 01:00:00 24.8 0 Calma 6 Sudoeste 0 -- -- 30
2019-06-24 00:00:00 26 2 Sudoeste 17 Oeste 0 -- -- 28
2019-06-23 23:00:00 27.5 10 Oeste 17 Oeste 0 -- -- 26
2019-06-23 22:00:00 28.6 6 Noroeste 20 Noroeste 0 -- -- 25
2019-06-23 21:00:00 31.1 10 Oeste 19 Noroeste 0 -- -- 23
2019-06-23 20:00:00 32.8 11 Sudoeste 24 Sudoeste 0 -- -- 23
2019-06-23 19:00:00 33.4 12 Sur 25 Sur 0 -- -- 23
2019-06-23 18:00:00 33.5 10 Sudeste 28 Sudeste 0 -- -- 23
2019-06-23 17:00:00 34 12 Sur 26 Sudeste 0 -- -- 21
2019-06-23 16:00:00 33.4 15 Sur 32 Sur 0 -- -- 21
2019-06-23 15:00:00 32.6 9 Este 30 Nordeste 0 -- -- 21
2019-06-23 14:00:00 31.5 10 Sur 28 Sur 0 -- -- 22
2019-06-23 13:00:00 30.7 10 Sur 32 Sur 0 -- -- 22
2019-06-23 12:00:00 28.5 5 Sur 15 Sudeste 0 -- -- 23
2019-06-23 11:00:00 26.9 5 Sudeste 12 Sur 0 -- -- 22
2019-06-23 10:00:00 25.4 4 Sudoeste 8 Sur 0 -- -- 22
2019-06-23 09:00:00 24.2 3 Este 5 Sudeste 0 -- -- 23
2019-06-23 08:00:00 21.6 3 Sudeste 5 Sudeste 0 -- -- 29
2019-06-23 07:00:00 19.3 3 Sur 9 Sur 0 -- -- 32
2019-06-23 06:00:00 18.9 3 Sudeste 10 Sur 0 -- -- 35
2019-06-23 05:00:00 19.9 7 Sur 21 Sudoeste 0 -- -- 40
2019-06-23 04:00:00 20.2 3 Sur 9 Sudeste 0 -- -- 45
2019-06-23 03:00:00 20.8 5 Sur 10 Sur 0 -- -- 32
2019-06-23 02:00:00 21.3 5 Sur 8 Sudeste 0 -- -- 32
2019-06-23 01:00:00 22.8 2 Sudeste 7 Sudeste 0 -- -- 29
2019-06-23 00:00:00 24 4 Sur 7 Sudeste 0 -- -- 28
2019-06-22 23:00:00 25.6 3 Sudoeste 10 Oeste 0 -- -- 26
2019-06-22 22:00:00 27.7 7 Oeste 14 Oeste 0 -- -- 23
2019-06-22 21:00:00 30.4 10 Sudoeste 17 Oeste 0 -- -- 19
2019-06-22 20:00:00 31.1 9 Sur 27 Sudoeste 0 -- -- 19
2019-06-22 19:00:00 31.3 15 Oeste 31 Oeste 0 -- -- 18
2019-06-22 18:00:00 31.1 9 Sur 42 Sur 0 -- -- 19
2019-06-22 17:00:00 31.3 13 Sur 28 Sudoeste 0 -- -- 19
2019-06-22 16:00:00 30.6 13 Sur 25 Oeste 0 -- -- 18
2019-06-22 15:00:00 31.3 10 Sur 28 Sudeste 0 -- -- 20
2019-06-22 14:00:00 29.9 11 Sur 28 Sur 0 -- -- 25
2019-06-22 13:00:00 28.9 7 Sur 20 Sudeste 0 -- -- 26
2019-06-22 12:00:00 27 6 Sudeste 15 Sudeste 0 -- -- 35
2019-06-22 11:00:00 23.8 5 Sudeste 19 Sudeste 0 -- -- 44
2019-06-22 10:00:00 21.3 6 Sudeste 14 Sudeste 0 -- -- 55
2019-06-22 09:00:00 19.4 5 Sudeste 11 Sudeste 0 -- -- 62
2019-06-22 08:00:00 17.8 4 Sur 8 Sudeste 0 -- -- 66
2019-06-22 07:00:00 17.4 4 Sudeste 10 Sudeste 0 -- -- 67
2019-06-22 06:00:00 17.4 2 Sudeste 25 Sudeste 0 -- -- 68
2019-06-22 05:00:00 17.9 12 Sudeste 27 Este 0 -- -- 67
2019-06-22 04:00:00 18.5 4 Sur 17 Este 0 -- -- 65
2019-06-22 03:00:00 19.2 6 Nordeste 20 Nordeste 0 -- -- 50
2019-06-22 02:00:00 19.2 4 Norte 8 Norte 0 -- -- 41
2019-06-22 01:00:00 20.5 4 Norte 12 Noroeste 0 -- -- 36
2019-06-22 00:00:00 22.1 6 Noroeste 13 Oeste 0 -- -- 32
2019-06-21 23:00:00 23.2 2 Noroeste 9 Noroeste 0 -- -- 27
2019-06-21 22:00:00 24.8 6 Noroeste 19 Noroeste 0 -- -- 26
2019-06-21 21:00:00 27.5 10 Oeste 21 Oeste 0 -- -- 25
2019-06-21 20:00:00 28.3 11 Oeste 25 Oeste 0 -- -- 26
2019-06-21 19:00:00 29 11 Oeste 24 Noroeste 0 -- -- 26
2019-06-21 18:00:00 28.5 10 Oeste 23 Oeste 0 -- -- 26
2019-06-21 17:00:00 28.3 5 Nordeste 27 Oeste 0 -- -- 27
2019-06-21 16:00:00 27.2 6 Noroeste 22 Noroeste 0 -- -- 29
2019-06-21 15:00:00 27.6 5 Sudeste 16 Sudoeste 0 -- -- 30
2019-06-21 14:00:00 26 11 Noroeste 20 Sudeste 0 -- -- 34
2019-06-21 13:00:00 25.7 5 Nordeste 18 Oeste 0 -- -- 35
2019-06-21 12:00:00 24.7 8 Sur 19 Sudoeste 0 -- -- 39
2019-06-21 11:00:00 23.4 3 Sudoeste 18 Noroeste 0 -- -- 46
2019-06-21 10:00:00 20.8 8 Oeste 15 Oeste 0 -- -- 54
2019-06-21 09:00:00 18.9 8 Oeste 15 Noroeste 0 -- -- 59
2019-06-21 08:00:00 17.9 4 Oeste 10 Oeste 0 -- -- 61
2019-06-21 07:00:00 16.4 2 Sudoeste 7 Oeste 0 -- -- 64
2019-06-21 06:00:00 17 7 Oeste 16 Oeste 0 -- -- 62
2019-06-21 05:00:00 18.1 10 Oeste 18 Oeste 0 -- -- 58
2019-06-21 04:00:00 19.3 8 Oeste 17 Oeste 0 -- -- 55
2019-06-21 03:00:00 19.3 7 Noroeste 12 Oeste 0 -- -- 46
2019-06-21 02:00:00 20.3 8 Oeste 13 Oeste 0 -- -- 42
2019-06-21 01:00:00 21.8 7 Oeste 13 Oeste 0 -- -- 40
2019-06-21 00:00:00 22.4 6 Oeste 15 Oeste 0 -- -- 40
2019-06-20 23:00:00 23.2 8 Oeste 19 Oeste 0 -- -- 38
2019-06-20 22:00:00 24.3 13 Oeste 24 Oeste 0 -- -- 36
2019-06-20 21:00:00 25.8 15 Sudoeste 26 Sudoeste 0 -- -- 33
2019-06-20 20:00:00 27.1 14 Sudoeste 31 Oeste 0 -- -- 31
2019-06-20 19:00:00 28.8 17 Oeste 29 Sudoeste 0 -- -- 28
2019-06-20 18:00:00 28.4 15 Oeste 28 Oeste 0 -- -- 29
2019-06-20 17:00:00 28.6 14 Oeste 32 Sudoeste 0 -- -- 28
2019-06-20 16:00:00 28 7 Noroeste 26 Sudoeste 0 -- -- 30
2019-06-20 15:00:00 27.4 6 Oeste 27 Sur 0 -- -- 30
2019-06-20 14:00:00 26.4 10 Oeste 27 Sudoeste 0 -- -- 35
2019-06-20 13:00:00 25.1 11 Oeste 25 Oeste 0 -- -- 40
2019-06-20 12:00:00 24 6 Oeste 19 Oeste 0 -- -- 42
2019-06-20 11:00:00 22.8 9 Sudoeste 18 Oeste 0 -- -- 46
2019-06-20 10:00:00 21.5 7 Noroeste 16 Oeste 0 -- -- 51
2019-06-20 09:00:00 19.9 6 Sudoeste 10 Sudoeste 0 -- -- 57
2019-06-20 08:00:00 17.8 5 Sudoeste 10 Sudoeste 0 -- -- 62
2019-06-20 07:00:00 16.2 5 Sur 11 Sudoeste 0 -- -- 65
2019-06-20 06:00:00 16.7 4 Sudoeste 9 Sudoeste 0 -- -- 63
2019-06-20 05:00:00 17 5 Sur 10 Sur 0 -- -- 61
2019-06-20 04:00:00 17.4 4 Sur 11 Sur 0 -- -- 59
2019-06-20 03:00:00 17.9 6 Sur 14 Sur 0 -- -- 56
2019-06-20 02:00:00 18.7 6 Sudoeste 13 Oeste 0 -- -- 54
2019-06-20 01:00:00 19.5 10 Oeste 15 Oeste 0 -- -- 51
2019-06-20 00:00:00 20.1 3 Sudoeste 19 Oeste 0 -- -- 49
2019-06-19 23:00:00 21.3 9 Oeste 23 Oeste 0 -- -- 46
2019-06-19 22:00:00 22.5 16 Oeste 32 Oeste 0 -- -- 43
2019-06-19 21:00:00 24.2 15 Oeste 27 Oeste 0 -- -- 41
2019-06-19 20:00:00 25.5 13 Oeste 31 Sudoeste 0 -- -- 37
2019-06-19 19:00:00 26.8 12 Sudoeste 30 Sudoeste 0 -- -- 32
2019-06-19 18:00:00 26.7 16 Oeste 32 Oeste 0 -- -- 34
2019-06-19 17:00:00 26.6 17 Oeste 30 Oeste 0 -- -- 36
2019-06-19 16:00:00 27.2 10 Sudoeste 36 Oeste 0 -- -- 34
2019-06-19 15:00:00 25.7 10 Sudoeste 31 Oeste 0 -- -- 37
2019-06-19 14:00:00 25.1 11 Sudoeste 31 Sudoeste 0 -- -- 39
2019-06-19 13:00:00 23.7 11 Sudoeste 22 Sudoeste 0 -- -- 42
2019-06-19 12:00:00 22.4 13 Sudoeste 28 Sudoeste 0 -- -- 47
2019-06-19 11:00:00 22.4 13 Sur 26 Sur 0 -- -- 48
2019-06-19 10:00:00 19.9 7 Sudoeste 14 Sudoeste 0 -- -- 58
2019-06-19 09:00:00 18.4 7 Oeste 14 Oeste 0 -- -- 58
2019-06-19 08:00:00 -- -- -- -- -- -- -- -- --
2019-06-19 07:00:00 -- -- -- -- -- -- -- -- --
2019-06-19 06:00:00 -- -- -- -- -- -- -- -- --
2019-06-19 05:00:00 -- -- -- -- -- -- -- -- --
2019-06-19 04:00:00 18.3 6 Sudoeste 13 Sudoeste 0 -- -- 59
2019-06-19 03:00:00 19.2 5 Sudoeste 10 Sudoeste 0 -- -- 54
2019-06-19 02:00:00 19.8 5 Sudoeste 13 Sudoeste 0 -- -- 51
2019-06-19 01:00:00 -- -- -- -- -- -- -- -- --
2019-06-19 00:00:00 21.7 6 Sudoeste 13 Oeste 0 -- -- 45
2019-06-18 23:00:00 22.9 6 Oeste 21 Oeste 0 -- -- 39
2019-06-18 22:00:00 24.5 16 Oeste 29 Oeste 0 -- -- 33
2019-06-18 21:00:00 26.6 19 Oeste 35 Oeste 0 -- -- 24
2019-06-18 20:00:00 28.7 18 Sudoeste 42 Sudoeste 0 -- -- 14
2019-06-18 19:00:00 29.6 21 Sudoeste 39 Sudoeste 0 -- -- 11
2019-06-18 18:00:00 29.9 21 Sudoeste 39 Sudoeste 0 -- -- 15
2019-06-18 17:00:00 30.1 21 Sudoeste 39 Sudoeste 0 -- -- 18
2019-06-18 16:00:00 29.4 22 Sudoeste 38 Sur 0 -- -- 21
2019-06-18 15:00:00 28.8 18 Sudoeste 41 Sudoeste 0 -- -- 21
2019-06-18 14:00:00 28.4 18 Sudoeste 41 Sur 0 -- -- 22
2019-06-18 13:00:00 26.8 20 Sur 40 Sudoeste 0 -- -- 28
2019-06-18 12:00:00 25.5 17 Sur 33 Sur 0 -- -- 30
2019-06-18 11:00:00 24.2 14 Sudoeste 28 Sudoeste 0 -- -- 29
2019-06-18 10:00:00 23.4 15 Sudoeste 29 Sudoeste 0 -- -- 25
2019-06-18 09:00:00 21.8 15 Sur 34 Sur 0 -- -- 21
2019-06-18 08:00:00 21.3 14 Sur 23 Sur 0 -- -- 25
2019-06-18 07:00:00 20 6 Sudoeste 14 Sudoeste 0 -- -- 28
2019-06-18 06:00:00 21.5 9 Sudoeste 18 Sudoeste 0 -- -- 25
2019-06-18 05:00:00 21.8 5 Sudoeste 11 Sudoeste 0 -- -- 24
2019-06-18 04:00:00 22.6 4 Sudeste 13 Sudoeste 0 -- -- 21
2019-06-18 03:00:00 23.6 9 Sudoeste 16 Sudoeste 0 -- -- 19
2019-06-18 02:00:00 23.8 8 Sur 13 Sudoeste 0 -- -- 20
2019-06-18 01:00:00 24.9 6 Sudoeste 14 Sudoeste 0 -- -- 20
2019-06-18 00:00:00 26 8 Sudoeste 21 Sudoeste 0 -- -- 19
2019-06-17 23:00:00 26.9 6 Sudoeste 17 Sudoeste 0 -- -- 19
2019-06-17 22:00:00 27.9 8 Sudoeste 24 Sudoeste 0 -- -- 20
2019-06-17 21:00:00 29 14 Sudoeste 27 Sudoeste 0 -- -- 20
2019-06-17 20:00:00 31.1 7 Sur 25 Sudoeste 0 -- -- 17
2019-06-17 19:00:00 31.5 8 Oeste 27 Sudoeste 0 -- -- 18
2019-06-17 18:00:00 31.5 10 Sur 33 Sur 0 -- -- 18
2019-06-17 17:00:00 31.1 10 Sur 26 Sur 0 -- -- 18
2019-06-17 16:00:00 31 9 Sur 30 Sudeste 0 -- -- 17
2019-06-17 15:00:00 30.5 10 Sudoeste 25 Oeste 0 -- -- 19
2019-06-17 14:00:00 29 8 Sur 25 Sudeste 0 -- -- 20
2019-06-17 13:00:00 28.4 9 Sur 20 Sur 0 -- -- 21
2019-06-17 12:00:00 26.8 7 Sur 15 Sur 0 -- -- 23
2019-06-17 11:00:00 25.1 4 Sur 11 Oeste 0 -- -- 25
2019-06-17 10:00:00 24 3 Norte 10 Noroeste 0 -- -- 27
2019-06-17 09:00:00 21.6 0 Calma 8 Sudeste 0 -- -- 30
2019-06-17 08:00:00 17.5 3 Sur 10 Sur 0 -- -- 34
2019-06-17 07:00:00 14 8 Sur 13 Oeste 0 -- -- 39
2019-06-17 06:00:00 14.5 3 Sur 9 Sudeste 0 -- -- 38
2019-06-17 05:00:00 16 4 Sur 12 Sur 0 -- -- 35
2019-06-17 04:00:00 16.5 7 Sur 12 Sur 0 -- -- 34
2019-06-17 03:00:00 18 6 Sur 9 Sudeste 0 -- -- 32
2019-06-17 02:00:00 18.8 2 Sudeste 6 Sudeste 0 -- -- 30
2019-06-17 01:00:00 19.6 4 Sudoeste 10 Sur 0 -- -- 29
2019-06-17 00:00:00 20.6 5 Sudoeste 9 Sudoeste 0 -- -- 26
2019-06-16 23:00:00 22.4 4 Sudoeste 13 Noroeste 0 -- -- 25
2019-06-16 22:00:00 24.8 8 Oeste 12 Oeste 0 -- -- 19
2019-06-16 21:00:00 28.2 3 Sudeste 15 Sur 0 -- -- 16
2019-06-16 20:00:00 28.7 10 Sudoeste 23 Sudoeste 0 -- -- 17
2019-06-16 19:00:00 28.2 9 Sudoeste 26 Sudoeste 0 -- -- 16
2019-06-16 18:00:00 28.8 11 Sudoeste 21 Sudoeste 0 -- -- 16
2019-06-16 17:00:00 28.5 12 Sur 22 Este 0 -- -- 19
2019-06-16 16:00:00 29.4 10 Sudeste 24 Sur 0 -- -- 20
2019-06-16 15:00:00 28.1 5 Sudeste 18 Este 0 -- -- 22
2019-06-16 14:00:00 27.6 5 Noroeste 14 Noroeste 0 -- -- 24
2019-06-16 13:00:00 25.6 6 Sudeste 18 Sur 0 -- -- 25
2019-06-16 12:00:00 24.2 5 Sudeste 19 Sudeste 0 -- -- 33
2019-06-16 11:00:00 21.2 9 Este 18 Sudeste 0 -- -- 37
2019-06-16 10:00:00 20.6 8 Este 15 Sur 0 -- -- 35
2019-06-16 09:00:00 17.7 4 Norte 8 Norte 0 -- -- 33
2019-06-16 08:00:00 13.8 2 Sur 9 Sur 0 -- -- 37
2019-06-16 07:00:00 12.3 3 Sur 9 Sur 0 -- -- 40
2019-06-16 06:00:00 13.3 2 Sudeste 5 Sudeste 0 -- -- 40
2019-06-16 05:00:00 14 2 Sur 6 Sur 0 -- -- 37
2019-06-16 04:00:00 15 2 Sur 5 Sur 0 -- -- 35
2019-06-16 03:00:00 14.9 5 Sudeste 9 Sudeste 0 -- -- 36
2019-06-16 02:00:00 16.4 4 Sudeste 6 Sudeste 0 -- -- 33
2019-06-16 01:00:00 17.4 0 Calma 6 Sur 0 -- -- 32
2019-06-16 00:00:00 18.5 0 Calma 5 Nordeste 0 -- -- 30